x

9444090 - Port Angeles, Wa (ptaw1) Weather Station

6:30pm - Sat 21st Oct 2017 All times are PDT. -7 hours from GMT.

  • Wind
    2mph, 3mph gusts
  • Sea Temp 49°f
  • Air Temp 48°f
  • Sea Pressure 999.9mb
  • 9444090 - Port Angeles, Wa
  • 9444090 - Port Angeles, Wa

More Historic Weather Station data

Upgrade to MSW Pro to gain access to the past 30 days of data for over 8000 Wavebouys and Weather Stations around the globe.

Join

Comparision Forecast

View Surf forecast
   
Sat 10/21 6:30pm 2 3 mph 999.9mb 49f 48f
6:24pm 3 6 mph 999.9mb 49f 48f
6:18pm 2 6 mph 999.7mb 49f 48f
6:12pm 2 6 mph 999.8mb 49f 48f
6:06pm 2 6 mph 999.7mb 49f 48f
6:00pm 2 6 mph 999.7mb 49f 48f
5:36pm 5 7 mph 999.4mb 49f 48f
5:30pm 5 6 mph 999.4mb 49f 48f
5:24pm 5 7 mph 999.4mb 49f 48f
5:18pm 7 8 mph 999.5mb 49f 48f
5:12pm 8 11 mph 999.7mb 49f 48f
5:06pm 9 13 mph 999.8mb 49f 47f
5:00pm 11 14 mph 999.7mb 49f 47f
4:36pm 6 6 mph 999.8mb 49f 47f
4:30pm 2 6 mph 999.8mb 49f 47f
4:24pm 3 5 mph 999.9mb 49f 48f
4:18pm 2 3 mph 1000.2mb 49f 47f
4:12pm 2 2 mph 1000.3mb 49f 48f
4:06pm  -  5 mph 1000.6mb 49f 48f
4:00pm 2 6 mph 1000.8mb 49f 47f
3:36pm 6 8 mph 1001.9mb 49f 48f
3:30pm 8 8 mph 1002.1mb 49f 48f
3:24pm 8 9 mph 1002.2mb 49f 48f
3:18pm 6 8 mph 1002.5mb 49f 48f
3:12pm 7 9 mph 1002.6mb 49f 48f
3:06pm 7 7 mph 1002.8mb 49f 48f
3:00pm 5 7 mph 1003mb 49f 48f
2:36pm 5 7 mph 1003.2mb 49f 48f
2:30pm 3 5 mph 1003.4mb 49f 48f
2:24pm 5 5 mph 1003.6mb 49f 48f
2:18pm 1 3 mph 1003.7mb 49f 48f
2:12pm 1 2 mph 1003.7mb 49f 49f
2:06pm 1 2 mph 1003.8mb 49f 48f
2:00pm 2 2 mph 1004mb 49f 48f
1:36pm 1 3 mph 1004.1mb 49f 48f
1:30pm 2 3 mph 1004.3mb 49f 48f
1:24pm 2 5 mph 1004.3mb 49f 48f
1:18pm 3 5 mph 1004.3mb 49f 48f
1:12pm 5 6 mph 1004.4mb 49f 48f
1:06pm 3 5 mph 1004.4mb 49f 48f
1:00pm 1 3 mph 1004.4mb 49f 48f
12:36pm 5 6 mph 1004.3mb 49f 48f
12:30pm 6 7 mph 1004.2mb 49f 48f
12:24pm 6 7 mph 1004.2mb 49f 48f
12:18pm 5 8 mph 1004.1mb 49f 48f
12:12pm 3 7 mph 1004.2mb 49f 48f
12:06pm 5 7 mph 1004.3mb 49f 48f
12:00pm 3 6 mph 1004.2mb 49f 48f
11:36am 8 10 mph 1004.4mb 49f 48f
11:30am 7 9 mph 1004.2mb 49f 47f
11:24am 8 10 mph 1004.4mb 49f 47f
11:18am 8 9 mph 1004.6mb 49f 48f
11:12am 5 6 mph 1004.3mb 49f 47f
11:06am 1 2 mph 1004.1mb 49f 47f
11:00am 2 2 mph 1004.1mb 49f 47f
10:36am 3 5 mph 1003.8mb 49f 47f
10:30am 3 5 mph 1003.9mb 49f 47f
10:24am 3 5 mph 1003.8mb 49f 47f
10:18am 1 5 mph 1003.7mb 49f 47f
10:12am 3 3 mph 1003.6mb 49f 47f
10:06am 3 6 mph 1003.7mb 49f 47f
10:00am 5 6 mph 1003.7mb 49f 47f
9:36am 2 3 mph 1003.4mb 49f 47f
9:30am 1 2 mph 1003.5mb 49f 47f
9:24am 2 2 mph 1003.4mb 49f 47f
9:18am 1 2 mph 1003.5mb 49f 47f
9:12am  -  3 mph 1003.6mb 49f 46f
9:06am 2 3 mph 1003.7mb 49f 47f
9:00am 1 3 mph 1003.9mb 49f 46f
8:36am 3 6 mph 1003.9mb 49f 45f
8:30am 2 5 mph 1004mb 49f 45f
8:24am  -  2 mph 1003.8mb 49f 45f
8:18am 3 5 mph 1003.7mb 49f 45f
8:12am 3 5 mph 1004mb 49f 45f
8:06am 2 6 mph 1003.9mb 49f 44f
8:00am 2 6 mph 1003.7mb 49f 44f
7:36am  -  3 mph 1004mb 49f 44f
7:30am 2 5 mph 1004.2mb 49f 44f
7:24am 1 8 mph 1004.4mb 49f 44f
7:18am 2 7 mph 1004.3mb 49f 44f
7:12am 1 5 mph 1004.4mb 49f 44f
7:06am 3 5 mph 1004.6mb 49f 44f
7:00am 3 6 mph 1004.9mb 49f 44f
6:36am 6 7 mph 1005.5mb 49f 44f
6:30am 2 2 mph 1005.5mb 49f 44f
6:24am 2 3 mph 1005.7mb 49f 44f
6:18am 2 2 mph 1006mb 49f 44f
6:12am 2 3 mph 1006.2mb 49f 44f
6:06am 2 3 mph 1006.5mb 49f 44f
6:00am 5 6 mph 1006.4mb 49f 44f
5:36am 2 3 mph 1006.9mb 49f 44f
5:30am 2 2 mph 1007.1mb 49f 44f
5:24am 2 3 mph 1007.2mb 49f 44f
5:18am 2 3 mph 1007.5mb 49f 44f
5:12am 1 2 mph 1007.5mb 49f 44f
5:06am 1 2 mph 1007.9mb 49f 44f
5:00am 1 2 mph 1007.9mb 49f 44f
4:36am 5 7 mph 1008.2mb 49f 44f
4:30am 6 7 mph 1008.4mb 49f 44f
4:24am 6 6 mph 1008.5mb 49f 44f
4:18am 5 6 mph 1008.6mb 49f 44f
4:12am 6 7 mph 1008.9mb 49f 44f
4:06am 3 5 mph 1009.1mb 49f 44f
4:00am 5 6 mph 1009.1mb 49f 44f
3:36am 2 2 mph 1009.5mb 49f 44f
3:30am 2 2 mph 1009.5mb 49f 44f
3:24am 2 3 mph 1009.7mb 49f 44f
3:18am 5 6 mph 1009.8mb 49f 44f
3:12am 3 5 mph 1009.9mb 49f 44f
3:06am 1 3 mph 1010mb 49f 44f
3:00am 3 5 mph 1010mb 49f 44f
2:36am 5 6 mph 1010.2mb 49f 44f
2:30am 2 5 mph 1010.3mb 49f 44f
2:24am 5 6 mph 1010.3mb 49f 44f
2:18am 3 5 mph 1010.3mb 49f 44f
2:12am 3 5 mph 1010.4mb 49f 45f
2:06am 3 5 mph 1010.5mb 49f 45f
2:00am 2 3 mph 1010.5mb 49f 45f
1:36am 5 6 mph 1010.7mb 49f 44f
1:30am 5 6 mph 1010.7mb 49f 44f
1:24am 2 5 mph 1010.7mb 49f 44f
1:18am 3 6 mph 1010.7mb 49f 45f
1:12am 6 7 mph 1010.9mb 49f 44f
1:06am 3 3 mph 1010.8mb 49f 45f
1:00am 3 6 mph 1010.9mb 49f 45f
12:36am 2 6 mph 1011.3mb 49f 44f
12:30am 5 6 mph 1011.3mb 49f 44f
12:24am 5 6 mph 1011.4mb 49f 44f
12:18am 6 8 mph 1011.4mb 49f 45f
12:12am 6 7 mph 1011.5mb 49f 45f
12:06am 7 7 mph 1011.4mb 49f 45f
12:00am 5 6 mph 1011.5mb 49f 45f
Fri 10/20 11:36pm 6 7 mph 1011.9mb 49f 45f
11:30pm 6 7 mph 1012mb 49f 45f
11:24pm 6 8 mph 1012.1mb 49f 45f
11:18pm 7 8 mph 1012.1mb 49f 45f
11:12pm 2 6 mph 1012mb 49f 45f
11:06pm 5 6 mph 1012.1mb 49f 45f
11:00pm 3 7 mph 1012.1mb 49f 46f
10:36pm 3 7 mph 1012.2mb 49f 44f
10:30pm 6 7 mph 1012.3mb 49f 44f
10:24pm 3 6 mph 1012.3mb 49f 45f
10:18pm 3 5 mph 1012.3mb 49f 44f
10:12pm 3 5 mph 1012.4mb 49f 44f
10:06pm 5 7 mph 1012.4mb 49f 44f
10:00pm 6 7 mph 1012.5mb 49f 44f
9:36pm 6 7 mph 1012mb 49f 44f
9:30pm 6 6 mph 1012mb 49f 44f
9:24pm 5 6 mph 1012mb 49f 44f
9:18pm 3 6 mph 1011.9mb 49f 44f
9:12pm 3 5 mph 1011.9mb 49f 44f
9:06pm  -  3 mph 1011.9mb 49f 44f
9:00pm 2 3 mph 1011.8mb 49f 45f
8:36pm 3 6 mph 1011.5mb 49f 45f
8:30pm 2 3 mph 1011.5mb 49f 46f
8:24pm 3 5 mph 1011.6mb 49f 46f
8:18pm 3 5 mph 1011.6mb 49f 46f
8:12pm 2 5 mph 1011.5mb 49f 48f
8:06pm 5 9 mph 1011.4mb 49f 48f
8:00pm 8 10 mph 1011.3mb 49f 49f
7:36pm 6 7 mph 1011.1mb 49f 48f
7:30pm 6 7 mph 1011.1mb 49f 48f
7:24pm 6 11 mph 1011.1mb 49f 50f
7:18pm 7 11 mph 1010.9mb 49f 49f
7:12pm 8 13 mph 1010.9mb 49f 49f
7:06pm 9 17 mph 1010.8mb 49f 49f
7:00pm 10 13 mph 1010.8mb 49f 49f
6:54pm 9 15 mph 1010.7mb 49f 49f
6:48pm 11 15 mph 1010.7mb 49f 49f
6:36pm 8 10 mph 1010.5mb 49f 50f
6:30pm 9 11 mph 1010.5mb 49f 50f
6:24pm 11 14 mph 1010.3mb 49f 50f
6:18pm 8 11 mph 1010.2mb 49f 50f
6:12pm 9 13 mph 1010.1mb 49f 51f
6:06pm 9 13 mph 1010.1mb 49f 51f
6:00pm 7 15 mph 1010.1mb 49f 51f
5:54pm 8 15 mph 1009.9mb 49f 51f
5:48pm 9 14 mph 1009.8mb 49f 51f
5:36pm 9 14 mph 1009.6mb 49f 52f
5:30pm 11 16 mph 1009.6mb 49f 52f
5:24pm 9 14 mph 1009.5mb 49f 52f
5:18pm 9 14 mph 1009.5mb 49f 53f
5:12pm 8 16 mph 1009.4mb 49f 52f
5:06pm 10 15 mph 1009.2mb 49f 53f
5:00pm 9 14 mph 1009.1mb 49f 53f
4:54pm 7 9 mph 1009.1mb 49f 53f
4:48pm 7 10 mph 1009.1mb 49f 53f
4:36pm 7 11 mph 1009mb 49f 53f
4:30pm 10 16 mph 1009mb 49f 52f
4:24pm 7 13 mph 1008.9mb 49f 53f
4:18pm 8 13 mph 1008.8mb 49f 53f
4:12pm 8 17 mph 1008.7mb 49f 53f
4:06pm 6 13 mph 1008.6mb 49f 53f
4:00pm 7 11 mph 1008.5mb 49f 54f
3:54pm 6 10 mph 1008.5mb 49f 55f
3:48pm 6 11 mph 1008.4mb 49f 54f
3:36pm 8 15 mph 1008.2mb 49f 53f
3:30pm 10 21 mph 1008.2mb 49f 53f
3:24pm 20 31 mph 1008.2mb 49f 53f
3:18pm 11 26 mph 1008mb 49f 53f
3:12pm 13 22 mph 1007.9mb 49f 53f
3:06pm 7 14 mph 1007.9mb 49f 53f
3:00pm 9 14 mph 1007.7mb 49f 54f
2:54pm 8 11 mph 1007.6mb 50f 53f
2:48pm 10 15 mph 1007.5mb 50f 53f
2:36pm 9 14 mph 1007.4mb 50f 52f
2:30pm 9 15 mph 1007.4mb 50f 53f
2:24pm 8 10 mph 1007.2mb 50f 53f
2:18pm 13 16 mph 1007.2mb 50f 53f
2:12pm 13 15 mph 1007.2mb 50f 53f
2:06pm 9 14 mph 1007.1mb 50f 53f
2:00pm 5 11 mph 1007mb 50f 53f
1:54pm 6 13 mph 1007.1mb 50f 53f
1:48pm 7 13 mph 1007.1mb 50f 52f
1:36pm 7 14 mph 1007mb 50f 51f
1:30pm 10 20 mph 1007mb 50f 51f
1:24pm 14 21 mph 1007mb 50f 51f
1:18pm 17 23 mph 1006.9mb 50f 51f
1:12pm 18 25 mph 1006.6mb 50f 51f
1:06pm 23 29 mph 1006.4mb 50f 51f
1:00pm 23 29 mph 1006.2mb 50f 50f
12:54pm 20 26 mph 1006.2mb 50f 51f
12:48pm 17 22 mph 1006mb 50f 52f
12:36pm 16 20 mph 1005.9mb 49f 52f
12:30pm 15 22 mph 1005.8mb 49f 52f
12:24pm 16 21 mph 1005.6mb 49f 51f
12:18pm 16 18 mph 1005.5mb 49f 52f
12:12pm 11 15 mph 1005.4mb 49f 53f
12:06pm 10 13 mph 1005.3mb 49f 51f
12:00pm 11 14 mph 1005.3mb 49f 51f
11:54am 11 14 mph 1005.3mb 49f 50f
11:48am 9 14 mph 1005.1mb 49f 50f
11:36am 7 13 mph 1005.1mb 49f 49f
11:30am 11 15 mph 1005.1mb 49f 49f
11:24am 9 14 mph 1005mb 49f 49f
11:18am 11 16 mph 1005mb 49f 49f
11:12am 14 16 mph 1004.9mb 49f 49f
11:06am 13 16 mph 1004.9mb 49f 49f
11:00am 11 15 mph 1004.7mb 49f 49f
10:54am 13 16 mph 1004.6mb 49f 49f
10:48am 13 17 mph 1004.5mb 49f 49f
10:36am 15 20 mph 1004.4mb 49f 49f
10:30am 16 21 mph 1004.3mb 49f 49f
10:24am 13 17 mph 1004.2mb 49f 51f
10:18am 14 18 mph 1004.1mb 49f 51f
10:12am 10 13 mph 1004.1mb 49f 52f
10:06am 7 11 mph 1003.9mb 49f 52f
10:00am 7 11 mph 1003.8mb 49f 52f
9:54am 7 10 mph 1003.7mb 49f 51f
9:48am 9 13 mph 1003.6mb 49f 50f
8:54am 2 6 mph 1002.9mb 49f 46f
8:48am 2 6 mph 1002.7mb 49f 45f
7:54am 7 9 mph 1002.6mb 49f 43f
7:48am 5 8 mph 1002.5mb 49f 43f
6:54am 3 5 mph 1002.3mb 49f 44f
6:48am 3 6 mph 1002.4mb 49f 44f
6:36am 3 8 mph 1002.3mb 49f 43f
6:30am 7 9 mph 1002.1mb 49f 43f
6:24am 6 7 mph 1002mb 49f 43f
6:18am 6 7 mph 1001.9mb 49f 44f
6:12am 5 7 mph 1001.9mb 49f 44f
6:06am 5 7 mph 1001.9mb 49f 45f
6:00am 6 10 mph 1002mb 49f 45f
5:54am 6 8 mph 1001.9mb 49f 44f
5:48am 6 7 mph 1001.9mb 49f 44f
5:36am 6 7 mph 1001.7mb 49f 43f
5:30am 6 7 mph 1001.7mb 49f 43f
5:24am 5 7 mph 1001.6mb 49f 44f
5:18am 5 7 mph 1001.5mb 49f 43f
5:12am 6 8 mph 1001.4mb 49f 44f
5:06am 6 7 mph 1001.4mb 49f 43f
5:00am 3 5 mph 1001.4mb 49f 43f
4:54am 5 7 mph 1001.3mb 49f 44f
4:48am 3 5 mph 1001.1mb 49f 43f
4:36am 6 7 mph 1000.9mb 49f 44f
4:30am 6 7 mph 1000.9mb 49f 43f
4:24am 3 6 mph 1000.7mb 49f 44f
4:18am 3 5 mph 1000.7mb 49f 43f
4:12am 2 5 mph 1000.6mb 49f 43f
4:06am 2 7 mph 1000.5mb 49f 44f
4:00am 6 7 mph 1000.5mb 49f 44f
3:54am 2 3 mph 1000.4mb 49f 43f
3:48am 2 5 mph 1000.5mb 49f 43f
3:36am 3 6 mph 1000.3mb 49f 44f
3:30am 5 6 mph 1000.1mb 50f 44f
3:24am 5 5 mph 1000.1mb 50f 44f
3:18am 2 3 mph 1000mb 50f 45f
3:12am  -  1 mph 999.9mb 50f 45f
3:06am  -  5 mph 999.9mb 50f 44f
3:00am 5 6 mph 999.9mb 50f 45f
2:54am 5 6 mph 999.8mb 50f 45f
2:48am 3 6 mph 999.8mb 50f 45f
2:36am 6 11 mph 999.7mb 49f 48f
2:30am 9 11 mph 999.7mb 49f 48f
2:24am 10 14 mph 999.6mb 49f 48f
2:18am 9 13 mph 999.5mb 50f 48f
2:12am 10 13 mph 999.4mb 50f 48f
2:06am 7 11 mph 999.5mb 50f 47f
2:00am 8 11 mph 999.5mb 50f 47f
1:54am 6 7 mph 999.5mb 50f 47f
1:48am 3 5 mph 999.5mb 50f 47f
1:36am 5 8 mph 999.4mb 50f 48f
1:30am 3 6 mph 999.3mb 50f 47f
1:24am 3 8 mph 999.3mb 50f 47f
1:18am 5 8 mph 999.2mb 50f 48f
1:12am 5 9 mph 999.2mb 50f 47f
1:06am 5 6 mph 999.2mb 50f 47f
1:00am 3 5 mph 999.2mb 50f 47f
12:54am 2 5 mph 999.2mb 50f 47f
12:48am 3 5 mph 999.1mb 50f 47f
12:36am 2 5 mph 999mb 50f 47f
12:30am 1 3 mph 999mb 50f 47f
12:24am 3 6 mph 999mb 50f 47f
12:18am 5 8 mph 999mb 50f 48f
12:12am 3 6 mph 999mb 50f 47f
12:06am 5 7 mph 999mb 50f 47f
12:00am 5 7 mph 999mb 50f 47f
Thu 10/19 11:54pm 3 6 mph 999mb 50f 47f
11:36pm 1 2 mph 998.8mb 50f 48f
11:30pm 2 6 mph 998.7mb 50f 48f
11:24pm 5 7 mph 998.5mb 50f 48f
11:18pm 6 11 mph 998.5mb 50f 48f
11:12pm 7 11 mph 998.5mb 50f 47f
11:06pm 5 8 mph 998.5mb 50f 47f
11:00pm 1 2 mph 998.5mb 50f 47f
10:54pm  -  2 mph 998.5mb 50f 47f
10:48pm  -  3 mph 998.6mb 50f 47f
10:36pm 5 6 mph 998.5mb 50f 47f
10:30pm 5 6 mph 998.5mb 50f 47f
10:24pm 3 6 mph 998.4mb 50f 47f
10:18pm 3 5 mph 998.4mb 50f 47f
10:12pm 1 2 mph 998.4mb 50f 48f
10:06pm 1 3 mph 998.4mb 50f 48f
10:00pm  -  2 mph 998.4mb 50f 48f
9:54pm 2 3 mph 998.3mb 50f 48f
9:48pm 3 5 mph 998.3mb 50f 48f
9:36pm 2 5 mph 998.3mb 50f 48f
9:30pm 1 5 mph 998.3mb 50f 48f
9:24pm 3 7 mph 998.3mb 50f 48f
9:18pm 6 7 mph 998.3mb 50f 48f
9:12pm 5 6 mph 998.2mb 50f 48f
9:06pm 3 6 mph 998.2mb 50f 48f
9:00pm 2 5 mph 998.2mb 50f 48f
8:54pm 5 6 mph 998mb 50f 49f
8:48pm 5 6 mph 997.9mb 50f 49f
8:36pm 3 6 mph 997.8mb 50f 48f
8:30pm 5 6 mph 997.9mb 50f 48f
8:24pm 3 6 mph 997.9mb 50f 47f
8:18pm 3 6 mph 998mb 50f 47f
8:12pm 2 7 mph 997.9mb 50f 47f
8:06pm 5 7 mph 997.9mb 50f 47f
8:00pm 2 5 mph 997.7mb 50f 47f
7:54pm  -  2 mph 997.7mb 50f 47f
7:48pm 1 3 mph 997.8mb 50f 47f
7:36pm 3 5 mph 997.5mb 50f 47f
7:30pm 6 6 mph 997.6mb 50f 47f
7:24pm 6 7 mph 997.5mb 50f 48f
7:18pm 2 5 mph 997.1mb 50f 49f
7:12pm 3 5 mph 997.2mb 50f 49f
7:06pm 3 3 mph 997.3mb 49f 49f
7:00pm 3 6 mph 997.3mb 49f 49f
6:54pm 6 9 mph 997.2mb 49f 49f
6:36pm 7 11 mph 997.1mb 49f 50f
6:30pm 6 9 mph 997.1mb 49f 50f
6:24pm 8 10 mph 997.1mb 49f 50f
6:18pm 7 9 mph 997mb 49f 50f
6:12pm 3 7 mph 996.9mb 49f 50f
6:06pm 1 5 mph 996.7mb 49f 50f
6:00pm 3 8 mph 996.8mb 49f 50f
5:54pm 7 9 mph 996.9mb 49f 50f
5:36pm 9 14 mph 996.9mb 49f 50f
5:30pm 7 9 mph 996.8mb 49f 51f
5:24pm 3 5 mph 996.9mb 49f 51f
5:18pm  -  2 mph 997mb 49f 51f
5:12pm 2 5 mph 997mb 49f 51f
5:06pm 3 6 mph 997mb 49f 51f
5:00pm  -  3 mph 996.7mb 49f 52f
4:54pm 3 5 mph 996.9mb 49f 52f
4:48pm 2 5 mph 997mb 49f 52f
4:30pm  -  mph 996.8mb 49f 51f
4:24pm  -  mph 996.7mb 49f 50f
4:18pm  -  mph 996.7mb 49f 50f
4:12pm  -  mph 996.5mb 49f 50f
4:06pm  -  mph 996.6mb 49f 50f
4:00pm  -  mph 996.7mb 49f 50f
3:54pm  -  mph 997mb 49f 50f
3:48pm  -  mph 997.1mb 49f 50f
3:36pm 7 8 mph 997mb 49f 50f
3:30pm 5 6 mph 997.1mb 49f 51f
3:24pm 7 8 mph 997.2mb 49f 50f
3:18pm 2 3 mph 997.2mb 49f 51f
3:12pm 1 6 mph 996.9mb 49f 51f
3:06pm 2 6 mph 997mb 49f 51f
3:00pm 6 8 mph 997mb 49f 51f
2:54pm 1 2 mph 997.4mb 49f 51f
2:48pm  -  3 mph 997.5mb 49f 51f
2:36pm 5 7 mph 997.7mb 49f 51f
2:30pm 5 7 mph 997.9mb 49f 51f
2:24pm 7 8 mph 997.9mb 49f 51f
2:18pm 8 9 mph 998mb 49f 51f
2:12pm 7 8 mph 998mb 49f 51f
2:06pm 7 7 mph 998mb 49f 51f
2:00pm 5 7 mph 997.9mb 49f 51f
1:54pm 8 10 mph 998.1mb 49f 51f
1:48pm 10 11 mph 998.1mb 49f 51f
1:36pm 9 10 mph 998.3mb 50f 51f
1:30pm 9 11 mph 998.3mb 50f 51f
1:24pm 8 10 mph 998.5mb 50f 51f
1:18pm 8 10 mph 998.5mb 50f 50f
1:12pm 9 10 mph 998.4mb 50f 50f
1:06pm 7 8 mph 998.5mb 50f 50f
1:00pm 7 7 mph 998.7mb 50f 50f
12:54pm 6 7 mph 998.8mb 50f 50f
12:48pm 5 6 mph 998.9mb 50f 50f
12:36pm 6 7 mph 998.7mb 50f 50f
12:30pm 6 7 mph 998.7mb 50f 50f
12:24pm 7 8 mph 998.9mb 50f 50f
12:18pm 7 7 mph 998.9mb 50f 50f
12:12pm 6 7 mph 998.8mb 50f 50f
12:06pm 2 2 mph 998.9mb 50f 51f
12:00pm 2 2 mph 999mb 50f 51f
11:54am 1 2 mph 999.2mb 50f 51f
11:48am  -  0 mph 999.1mb 50f 51f
11:36am  -  2 mph 999mb 49f 50f
11:30am 2 2 mph 998.9mb 49f 51f
11:24am 2 2 mph 998.9mb 49f 50f
11:18am 1 2 mph 998.8mb 49f 51f
11:12am  -  1 mph 998.7mb 49f 51f
11:06am 1 2 mph 998.7mb 49f 51f
11:00am 1 2 mph 998.6mb 49f 51f
10:54am 1 2 mph 998.6mb 49f 51f
10:48am  -  1 mph 998.6mb 49f 51f
10:36am 5 6 mph 998.5mb 49f 51f
10:30am 3 6 mph 998.6mb 49f 52f
10:24am 6 7 mph 998.5mb 49f 52f
10:18am 3 6 mph 998.4mb 49f 53f
10:12am 2 5 mph 998.4mb 49f 53f
10:06am 3 6 mph 998.3mb 49f 53f
10:00am 5 7 mph 998.4mb 49f 53f
9:54am 5 10 mph 998.4mb 49f 52f
9:48am 8 11 mph 998.3mb 49f 51f
9:36am 6 6 mph 998.6mb 49f 51f
9:30am 3 5 mph 998.5mb 49f 51f
9:24am 5 7 mph 998.4mb 49f 51f
9:18am 7 9 mph 998.2mb 49f 51f
9:12am 8 9 mph 998.5mb 49f 51f
9:06am 3 7 mph 998.5mb 49f 51f
9:00am 6 7 mph 998.5mb 49f 51f
8:54am 3 6 mph 998.5mb 49f 51f
8:48am 5 7 mph 998.5mb 49f 50f
8:36am 2 3 mph 998.2mb 49f 50f
8:30am 2 3 mph 998.3mb 49f 50f
8:24am 1 2 mph 998.3mb 49f 50f
8:18am 2 3 mph 998.4mb 49f 50f
8:12am 2 3 mph 998.3mb 49f 50f
8:06am 1 6 mph 998.4mb 49f 50f
8:00am 3 6 mph 998.5mb 49f 50f
7:54am 2 5 mph 998.4mb 49f 50f
7:48am 6 10 mph 998.6mb 49f 50f
7:36am 3 6 mph 998.6mb 49f 50f
7:30am 3 5 mph 998.7mb 49f 50f
7:24am 5 6 mph 998.8mb 49f 50f
7:18am 5 6 mph 998.8mb 49f 50f
7:12am 3 5 mph 998.9mb 49f 50f
7:06am 2 6 mph 999mb 49f 50f
7:00am 5 7 mph 999mb 49f 50f
6:54am 6 8 mph 998.9mb 49f 51f
6:48am 6 8 mph 999mb 49f 51f
6:36am 7 10 mph 999.2mb 49f 51f
6:30am 8 11 mph 999.3mb 49f 51f
6:24am 8 10 mph 999.3mb 49f 51f
6:18am 7 8 mph 999.4mb 49f 51f
6:12am 7 10 mph 999.5mb 49f 51f
6:06am 7 9 mph 999.5mb 49f 50f
6:00am 7 13 mph 999.6mb 49f 50f
5:54am 8 11 mph 999.5mb 49f 50f
5:48am 7 9 mph 999.5mb 49f 50f
5:36am 2 3 mph 999.6mb 49f 50f
5:30am 1 3 mph 999.6mb 49f 50f
5:24am 3 3 mph 999.6mb 49f 51f
5:18am 2 6 mph 999.7mb 49f 50f
5:12am 6 8 mph 999.9mb 49f 50f
5:06am 6 8 mph 1000mb 49f 50f
5:00am 7 8 mph - - -
4:54am 8 9 mph - - -
4:48am 7 9 mph - - -
1:36am 3 5 mph 1000mb 50f 50f
1:30am 3 5 mph 1000mb 50f 50f
1:24am 5 6 mph 1000mb 50f 50f
1:18am 2 3 mph 1000mb 50f 51f
1:12am 2 6 mph 1000mb 50f 51f
1:06am 3 6 mph 999.9mb 50f 51f
1:00am 3 5 mph 999.8mb 50f 51f
12:54am 3 7 mph 999.9mb 50f 51f
12:48am 5 6 mph 999.9mb 50f 51f
12:36am 3 6 mph 1000mb 50f 51f
12:30am 3 6 mph 1000mb 50f 51f
12:24am 3 5 mph 1000mb 50f 51f
12:18am 3 6 mph 1000.2mb 50f 51f
12:12am 3 5 mph 1000.2mb 50f 52f
12:06am 1 5 mph 1000mb 50f 52f
12:00am  -  5 mph 1000.1mb 50f 52f
Wed 10/18 11:54pm 3 5 mph 1000.1mb 50f 52f
11:48pm 2 6 mph 1000mb 50f 52f
11:36pm 2 3 mph 999.9mb 50f 52f
11:30pm 2 3 mph 1000mb 50f 52f
11:24pm 3 3 mph 1000mb 50f 52f
11:18pm 2 3 mph 999.9mb 50f 52f
11:12pm 1 6 mph 1000.1mb 50f 52f
11:06pm 1 5 mph 999.7mb 50f 52f
11:00pm 2 3 mph 999.6mb 50f 53f
10:54pm 5 6 mph 999.7mb 50f 53f
10:48pm 2 3 mph 1000.1mb 50f 52f
10:36pm 5 6 mph 999.9mb 50f 53f
10:30pm 6 8 mph 999.9mb 50f 53f
10:24pm 5 7 mph 999.9mb 50f 53f
10:18pm 6 8 mph 1000mb 50f 53f
10:12pm 3 9 mph 1000mb 50f 53f
10:06pm 10 13 mph 1000mb 49f 52f
10:00pm 5 6 mph 999.9mb 50f 53f
9:54pm  -  6 mph 999.4mb 50f 53f
9:48pm 3 6 mph 999.6mb 50f 53f
9:36pm 8 10 mph 999.3mb 50f 53f
9:30pm 5 6 mph 1000mb 50f 53f
9:24pm 3 5 mph 1000mb 50f 53f
9:18pm 5 6 mph 999.7mb 50f 53f
9:12pm 5 8 mph 1000mb 50f 52f
9:06pm 5 8 mph 1000.2mb 50f 53f
9:00pm 5 7 mph 1000.3mb 50f 52f
8:54pm 3 5 mph 1000.7mb 50f 52f
8:48pm 1 3 mph 1000.7mb 50f 52f
8:36pm 1 5 mph 1001mb 50f 52f
8:30pm 3 6 mph 1001mb 50f 53f
8:24pm 2 5 mph 1000.7mb 50f 53f
8:18pm 5 7 mph 1000.5mb 50f 52f
8:12pm 6 11 mph 1000.8mb 50f 52f
8:06pm 8 11 mph 1001mb 50f 52f
8:00pm 7 9 mph 1001.1mb 50f 53f
7:54pm 5 8 mph 1001.1mb 50f 53f
7:48pm 6 10 mph 1001mb 50f 53f
7:36pm 5 5 mph 1001mb 50f 53f
7:30pm 2 6 mph 1001.1mb 50f 53f
7:24pm 3 9 mph 1001.4mb 50f 53f
7:18pm 8 11 mph 1001.4mb 50f 53f
7:12pm 5 15 mph 1001.2mb 50f 53f
7:06pm 14 18 mph 1001.1mb 50f 53f
7:00pm 15 20 mph 1000.7mb 50f 53f
6:54pm 13 16 mph 1000.6mb 50f 53f
6:36pm 11 16 mph 1000.4mb 50f 52f
6:30pm 6 8 mph 1000.3mb 50f 52f
6:24pm 1 2 mph 1000mb 50f 53f
6:18pm  -  5 mph 1000.1mb 50f 53f
6:12pm 2 3 mph 999.9mb 50f 53f
6:06pm  -  3 mph 1000mb 50f 53f
6:00pm 3 8 mph 1000mb 50f 53f
5:54pm 7 9 mph 999.9mb 50f 53f
5:48pm  -  5 mph 999.7mb 50f 53f
5:36pm 5 6 mph 999.6mb 50f 53f
5:30pm 6 9 mph 999.6mb 50f 53f
5:24pm 7 13 mph 999.5mb 50f 53f
5:18pm 5 13 mph 999.4mb 50f 53f
5:12pm 10 16 mph 999.6mb 50f 53f
5:06pm 6 9 mph 999.6mb 50f 53f
5:00pm 2 5 mph 999.6mb 50f 51f
4:54pm 2 2 mph 999.7mb 50f 51f
4:48pm 2 5 mph 999.7mb 50f 51f
4:36pm 5 7 mph 999.6mb 50f 51f
4:30pm 3 9 mph 999.4mb 50f 51f
4:24pm 6 9 mph 999.6mb 50f 51f
4:18pm 5 10 mph 999.5mb 50f 51f
4:12pm 10 17 mph 999.2mb 49f 50f
4:06pm 17 21 mph 999.2mb 50f 49f
4:00pm 5 10 mph 998.6mb 50f 49f
3:54pm 11 17 mph 998.4mb 50f 49f
3:48pm 7 13 mph 998mb 50f 49f
3:36pm 5 8 mph 997.7mb 50f 50f
3:30pm 3 5 mph 997.8mb 50f 51f
3:24pm 3 5 mph 997.5mb 50f 50f
3:18pm 2 3 mph 997.6mb 50f 50f
3:12pm 1 2 mph 997.9mb 50f 50f
3:06pm  -  3 mph 998.1mb 50f 50f
3:00pm 2 5 mph 998mb 50f 50f
2:54pm 7 8 mph 997.8mb 50f 50f
2:48pm  -  6 mph 998.2mb 50f 50f
2:36pm 6 7 mph 998.1mb 50f 50f
2:30pm 5 6 mph 998.1mb 50f 49f
2:24pm 5 5 mph 998.2mb 50f 49f
2:18pm 1 6 mph 998.7mb 50f 49f
2:12pm 3 6 mph 998.7mb 50f 49f
2:06pm 5 6 mph 998.7mb 50f 49f
2:00pm 5 6 mph 999.1mb 50f 49f
1:54pm 3 8 mph 998.9mb 50f 49f
1:48pm 7 9 mph 999.1mb 50f 49f
1:36pm 1 2 mph 998.8mb 49f 49f
1:30pm 1 5 mph 998.8mb 49f 49f
1:24pm 1 5 mph 999.5mb 49f 48f
1:18pm 3 5 mph 999.5mb 49f 48f
1:12pm 1 3 mph 999.5mb 49f 48f
1:06pm 3 6 mph 999.7mb 49f 48f
1:00pm  -  5 mph 1000.2mb 49f 48f
12:54pm  -  3 mph 1000.3mb 49f 48f
12:48pm  -  3 mph 1000.6mb 50f 48f
12:36pm 3 6 mph 1000.8mb 50f 47f
12:30pm  -  7 mph 1001mb 50f 47f
12:24pm 6 7 mph 1001.4mb 50f 47f
12:18pm 3 6 mph 1001mb 50f 47f
12:12pm 5 6 mph 1000.9mb 50f 47f
12:06pm 2 6 mph 1001.3mb 50f 47f
12:00pm 5 5 mph 1001.4mb 50f 47f
11:54am 2 5 mph 1001.3mb 50f 47f
11:48am 1 5 mph 1001.3mb 50f 48f
11:36am 1 3 mph 1001.8mb 50f 47f
11:30am 2 3 mph 1001.8mb 50f 48f
11:24am 2 3 mph 1001.9mb 50f 48f
11:18am 2 3 mph 1002.3mb 50f 47f
11:12am 2 3 mph 1002.2mb 50f 47f
11:06am  -  2 mph 1002.4mb 50f 47f
11:00am 1 2 mph 1002.5mb 50f 47f
10:54am  -  3 mph 1002.5mb 50f 47f
10:48am 3 6 mph 1002.7mb 50f 47f
10:36am 2 5 mph 1003mb 50f 47f
10:30am 5 6 mph 1003mb 50f 47f
10:24am 1 2 mph 1003.4mb 49f 47f
10:18am 1 5 mph 1003.4mb 49f 47f
10:12am 2 2 mph 1003.6mb 49f 47f
10:06am 1 2 mph 1003.6mb 49f 47f
10:00am 1 2 mph 1003.8mb 49f 46f
9:54am  -  2 mph 1004.2mb 49f 46f
9:48am 2 3 mph 1004.5mb 49f 47f
9:36am 2 3 mph 1004.9mb 49f 47f
9:30am 2 5 mph 1004.9mb 49f 47f
9:24am 1 3 mph 1005.1mb 49f 47f
9:18am 2 3 mph 1005.3mb 49f 47f
9:12am 2 3 mph 1005.7mb 49f 46f
9:06am 1 3 mph 1005.9mb 49f 46f
9:00am 2 5 mph 1006mb 49f 46f
8:54am 2 3 mph 1006.2mb 49f 46f
8:48am 2 3 mph 1006.3mb 49f 46f
8:36am 2 3 mph 1006.7mb 49f 46f
8:30am 1 3 mph 1006.9mb 49f 46f
8:24am 2 3 mph 1007.1mb 49f 46f
8:18am 1 2 mph 1007.3mb 49f 45f
8:12am 2 3 mph 1007.5mb 49f 45f
8:06am 5 6 mph 1007.8mb 49f 46f
8:00am 5 6 mph 1007.8mb 49f 46f
7:54am 3 5 mph 1007.9mb 49f 46f
7:48am 5 6 mph 1008.3mb 49f 46f
7:36am 3 3 mph 1008.5mb 49f 46f
7:30am 2 5 mph 1008.7mb 49f 46f
7:24am 1 6 mph 1008.9mb 49f 46f
7:18am 3 8 mph 1008.9mb 49f 46f
7:12am 2 5 mph 1009.1mb 49f 46f
7:06am 5 6 mph 1009.5mb 49f 46f
7:00am 2 3 mph 1009.6mb 49f 46f
6:54am 2 6 mph 1009.8mb 49f 46f
6:48am 5 6 mph 1010mb 49f 46f
6:36am 5 8 mph 1009.9mb 49f 46f
6:30am 1 6 mph 1009.9mb 49f 46f
6:24am 6 7 mph 1010mb 49f 46f
6:18am 2 6 mph 1010mb 49f 46f
6:12am 5 7 mph 1010.3mb 49f 46f
6:06am 2 3 mph 1010.1mb 49f 46f
6:00am 2 3 mph 1010.4mb 49f 46f
5:54am 1 3 mph 1010.6mb 49f 46f
5:48am 1 2 mph 1011mb 49f 46f
5:36am 2 5 mph 1011.5mb 49f 46f
5:30am 5 7 mph 1011.7mb 49f 46f
5:24am 6 8 mph 1011.9mb 49f 46f
5:18am 7 10 mph 1012.1mb 49f 46f
5:12am 6 7 mph 1012.1mb 49f 45f
5:06am 5 8 mph 1012.2mb 49f 45f
5:00am 5 7 mph 1012.2mb 49f 45f
4:54am 6 7 mph 1012.3mb 49f 45f
4:48am 6 7 mph 1012.4mb 49f 45f
4:36am 3 5 mph 1012.6mb 49f 45f
4:30am 3 5 mph 1012.8mb 49f 45f
4:24am 5 5 mph 1013.2mb 50f 45f
4:18am 3 3 mph 1013.3mb 50f 45f
4:12am 3 5 mph 1013.5mb 50f 45f
4:06am 3 3 mph 1013.8mb 50f 45f
4:00am 3 3 mph 1014.2mb 50f 45f
3:54am 2 3 mph 1014.3mb 50f 45f
3:48am  -  1 mph 1014.4mb 50f 46f
3:36am 2 3 mph 1014.6mb 50f 45f
3:30am 2 6 mph 1014.7mb 50f 45f
3:24am 5 6 mph 1014.8mb 50f 45f
3:18am 3 6 mph 1014.8mb 50f 45f
3:12am 5 6 mph 1014.9mb 50f 45f
3:06am 3 5 mph 1015.1mb 50f 45f
3:00am 3 6 mph 1015.1mb 50f 44f